WetterOnline ( https://www.wetteronline.de )

Wetter aktuell List

Aktuelles Wetter: List/Sylt (29m)

6-stündlich | Neueste Meldungen
Ortszeit Temperatur Wetter
Mo, 06.02. 13:00 5.9° C Nebel
Mo, 06.02. 7:00 5.1° C bewölkt
Mo, 06.02. 1:00 4.6° C bedeckt
So, 05.02. 19:00 4.6° C wolkig
So, 05.02. 13:00 6.5° C wolkenlos
So, 05.02. 7:00 1.7° C leichter Regen
So, 05.02. 1:00 2.4° C bedeckt
Sa, 04.02. 19:00 2.3° C bedeckt
Ortszeit Temperatur Wetter
Mo, 06.02. 16:30 3.9° C bedeckt
Mo, 06.02. 16:20 3.9° C Dunst
Mo, 06.02. 16:10 4.0° C bedeckt
Mo, 06.02. 16:00 4.4° C bewölkt
Mo, 06.02. 15:50 4.4° C bewölkt
Mo, 06.02. 15:40 4.4° C wolkig
Mo, 06.02. 15:30 4.8° C bedeckt
Mo, 06.02. 15:00 5.1° C bewölkt
Mo, 06.02. 14:30 5.2° C leicht bewölkt
Mo, 06.02. 14:00 6.0° C leicht bewölkt
Mo, 06.02. 13:30 5.7° C leicht bewölkt
Ortszeit Relative Feuchte Sichtweite
Mo, 06.02. 13:00 90% 16 km
Mo, 06.02. 7:00 98% 9 km
Mo, 06.02. 1:00 95% 12 km
So, 05.02. 19:00 89% 11 km
So, 05.02. 13:00 89% 13 km
So, 05.02. 7:00 94% 12 km
So, 05.02. 1:00 84% 40 km
Sa, 04.02. 19:00 82% 65 km
Ortszeit Relative Feuchte Sichtweite
Mo, 06.02. 16:30 97% 5.0 km
Mo, 06.02. 16:20 97% -
Mo, 06.02. 16:10 96% -
Mo, 06.02. 16:00 95% 12 km
Mo, 06.02. 15:50 95% -
Mo, 06.02. 15:40 94% -
Mo, 06.02. 15:30 95% 13 km
Mo, 06.02. 15:00 93% 15 km
Mo, 06.02. 14:30 91% 15 km
Mo, 06.02. 14:00 85% 18 km
Mo, 06.02. 13:30 89% 20 km
Ortszeit Niederschlagsmenge Niederschlagsart
Mo, 06.02. 13:00 0.0 l/m2 in 6 Std. -
Mo, 06.02. 7:00 0.0 l/m2 in 12 Std. -
Mo, 06.02. 1:00 0.0 l/m2 in 6 Std. -
So, 05.02. 19:00 0.6 l/m2 in 12 Std. -
So, 05.02. 13:00 0.6 l/m2 in 6 Std. Regen
So, 05.02. 7:00 0.3 l/m2 in 12 Std. Schnee, Regen
So, 05.02. 1:00 0.0 l/m2 in 6 Std. -
Sa, 04.02. 19:00 0.0 l/m2 in 12 Std. -
Ortszeit Niederschlagsmenge Niederschlagsart
Mo, 06.02. 16:30 0.0 l/m2 in 30 Min -
Mo, 06.02. 16:20 keine Meldung -
Mo, 06.02. 16:10 keine Meldung -
Mo, 06.02. 16:00 0.0 l/m2 in 1 Std. -
Mo, 06.02. 15:50 keine Meldung -
Mo, 06.02. 15:40 keine Meldung -
Mo, 06.02. 15:30 0.0 l/m2 in 30 Min -
Mo, 06.02. 15:00 0.0 l/m2 in 1 Std. -
Mo, 06.02. 14:30 0.0 l/m2 in 30 Min -
Mo, 06.02. 14:00 0.0 l/m2 in 1 Std. -
Mo, 06.02. 13:30 0.0 l/m2 in 30 Min -
Ortszeit Stärke Spitze Richtung
km/h Bft. km/h Grad Sektor
Mo, 06.02. 13:00 7 2 29 70° O
Mo, 06.02. 7:00 22 4 32 310° NW
Mo, 06.02. 1:00 17 3 41 320° NW
So, 05.02. 19:00 36 5 47 340° N
So, 05.02. 13:00 26 4 41 340° N
So, 05.02. 7:00 33 5 52 170° S
So, 05.02. 1:00 39 6 48 160° S
Sa, 04.02. 19:00 22 4 32 130° SO
Ortszeit Stärke Spitze Richtung
km/h Bft. km/h Grad Sektor
Mo, 06.02. 16:30 9 2 17 140° SO
Mo, 06.02. 16:20 9 2 - 140° SO
Mo, 06.02. 16:10 11 2 - 140° SO
Mo, 06.02. 16:00 9 2 15 140° SO
Mo, 06.02. 15:50 9 2 - 140° SO
Mo, 06.02. 15:40 7 2 - 150° SO
Mo, 06.02. 15:30 7 2 11 140° SO
Mo, 06.02. 15:00 6 1 13 160° S
Mo, 06.02. 14:30 9 2 13 130° SO
Mo, 06.02. 14:00 6 1 15 40° NO
Mo, 06.02. 13:30 11 2 14 90° O
Ortszeit Untergrenze Bedeckung Gattung
total tief tief mittel hoch
Mo, 06.02. 13:00 270 m 6/8 2/8 - - -
Mo, 06.02. 7:00 300 m 7/8 7/8 - - -
Mo, 06.02. 1:00 4800 m 8/8 8/8 - - -
So, 05.02. 19:00 7200 m 8/8 0/8 - - -
So, 05.02. 13:00 - 0/8 0/8 - - -
So, 05.02. 7:00 210 m 8/8 8/8 - - -
So, 05.02. 1:00 1440 m 8/8 8/8 - - -
Sa, 04.02. 19:00 2700 m 8/8 8/8 - - -
Ortszeit Bedeckungsgrad in Achtel und Wolkenuntergrenze
Mo, 06.02. 16:30 8(90m)
Mo, 06.02. 16:20 8(90m)
Mo, 06.02. 16:10 8
Mo, 06.02. 16:00 7(180m)
Mo, 06.02. 15:50 7(180m)
Mo, 06.02. 15:40 6
Mo, 06.02. 15:30 8(210m)
Mo, 06.02. 15:00 7(240m)
Mo, 06.02. 14:30 4(270m)
Mo, 06.02. 14:00 3(210m)
Mo, 06.02. 13:30 3(150m) 4(3300m)
Ortszeit Luftdruck NN (hPa) Tendenz (hPa in 3 Std.)
Mo, 06.02. 13:00 1041 - 0,3
Mo, 06.02. 7:00 1041 - 0,4
Mo, 06.02. 1:00 1041 + 0,5
So, 05.02. 19:00 1039 + 1,8
So, 05.02. 13:00 1035 + 1,2
So, 05.02. 7:00 1033 - 0,5
So, 05.02. 1:00 1036 - 1,7
Sa, 04.02. 19:00 1039 + 0,2
Ortszeit Luftdruck NN (hPa) Tendenz (hPa in 3 Std.)
Mo, 06.02. 16:30 1040 - 0,6
Mo, 06.02. 16:20 1040 keine Meldung
Mo, 06.02. 16:10 1040 keine Meldung
Mo, 06.02. 16:00 1040 - 0,7
Mo, 06.02. 15:50 1040 keine Meldung
Mo, 06.02. 15:40 1041 keine Meldung
Mo, 06.02. 15:30 1041 - 0,9
Mo, 06.02. 15:00 1041 - 0,7
Mo, 06.02. 14:30 1041 - 0,7
Mo, 06.02. 14:00 1041 - 0,4
Mo, 06.02. 13:30 1041 - 0,4
Ortszeit Schneehöhe (cm)
Mo, 06.02. 13:00 0
Mo, 06.02. 7:00 0
Mo, 06.02. 1:00 0
So, 05.02. 19:00 0
So, 05.02. 13:00 0
So, 05.02. 7:00 0
So, 05.02. 1:00 0
Sa, 04.02. 19:00 0
Ortszeit Schneehöhe (cm)
Mo, 06.02. 16:30 0
Mo, 06.02. 16:20 0
Mo, 06.02. 16:10 0
Mo, 06.02. 16:00 0
Mo, 06.02. 15:50 0
Mo, 06.02. 15:40 0
Mo, 06.02. 15:30 0
Mo, 06.02. 15:00 0
Mo, 06.02. 14:30 0
Mo, 06.02. 14:00 0
Mo, 06.02. 13:30 -
Link zu dieser Seite / Seite empfehlen

Das Wetter in ...